Time,TemperatureF,DewpointF,PressureIn,WindDirection,WindDirectionDegrees,WindSpeedMPH,WindSpeedGustMPH,Humidity,HourlyPrecipIn,Conditions,Clouds,dailyrainin,SoftwareType,DateUTC
2013-07-03 00:05:00,69.6,65.2,29.87,N/A,-32768,0.0,0.0,86,0.00,,,0.00,Wunderground v.1.12,2013-07-03 06:05:00,
2013-07-03 00:10:00,69.3,65.3,29.87,N/A,-32768,0.0,0.0,87,0.00,,,0.00,Wunderground v.1.12,2013-07-03 06:10:00,
2013-07-03 00:15:00,69.4,65.4,29.87,N/A,-32768,0.0,0.0,87,0.00,,,0.00,Wunderground v.1.12,2013-07-03 06:15:00,
2013-07-03 00:20:00,69.1,65.1,29.87,N/A,-32768,0.0,0.0,87,0.00,,,0.00,Wunderground v.1.12,2013-07-03 06:20:00,
2013-07-03 00:25:00,68.9,64.9,29.87,N/A,-32768,0.0,0.0,87,0.00,,,0.00,Wunderground v.1.12,2013-07-03 06:25:00,
2013-07-03 00:30:00,68.8,64.8,29.87,N/A,-32768,0.0,0.0,87,0.00,,,0.00,Wunderground v.1.12,2013-07-03 06:30:00,
2013-07-03 00:35:00,68.6,64.6,29.87,N/A,-32768,0.0,0.0,87,0.00,,,0.00,Wunderground v.1.12,2013-07-03 06:35:00,
2013-07-03 00:40:00,68.5,64.1,29.86,N/A,-32768,0.0,0.0,86,0.00,,,0.00,Wunderground v.1.12,2013-07-03 06:40:00,
2013-07-03 00:45:00,68.7,64.0,29.86,N/A,-32768,0.0,0.0,85,0.00,,,0.00,Wunderground v.1.12,2013-07-03 06:45:00,
2013-07-03 00:50:00,68.8,63.8,29.87,N/A,-32768,0.0,0.0,84,0.00,,,0.00,Wunderground v.1.12,2013-07-03 06:50:00,
2013-07-03 01:05:00,69.0,63.6,29.86,N/A,-32768,0.0,0.0,83,0.00,,,0.00,Wunderground v.1.12,2013-07-03 07:05:00,
2013-07-03 01:10:00,69.1,63.7,29.87,N/A,-32768,0.0,0.0,83,0.00,,,0.00,Wunderground v.1.12,2013-07-03 07:10:00,
2013-07-03 01:20:00,69.1,63.7,29.87,N/A,-32768,0.0,0.0,83,0.00,,,0.00,Wunderground v.1.12,2013-07-03 07:20:00,
2013-07-03 01:25:00,69.1,63.7,29.87,N/A,-32768,0.0,0.0,83,0.00,,,0.00,Wunderground v.1.12,2013-07-03 07:25:00,
2013-07-03 01:30:00,69.2,63.8,29.88,N/A,-32768,0.0,0.0,83,0.00,,,0.00,Wunderground v.1.12,2013-07-03 07:30:00,
2013-07-03 01:35:00,69.1,63.7,29.88,N/A,-32768,0.0,0.0,83,0.00,,,0.00,Wunderground v.1.12,2013-07-03 07:35:00,
2013-07-03 01:40:00,68.8,63.4,29.88,N/A,-32768,0.0,0.0,83,0.00,,,0.00,Wunderground v.1.12,2013-07-03 07:40:00,
2013-07-03 01:45:00,68.5,63.5,29.88,N/A,-32768,0.0,0.0,84,0.00,,,0.00,Wunderground v.1.12,2013-07-03 07:45:00,
2013-07-03 01:50:00,68.3,63.3,29.88,N/A,-32768,0.0,0.0,84,0.00,,,0.00,Wunderground v.1.12,2013-07-03 07:50:00,
2013-07-03 01:55:00,68.0,63.3,29.88,N/A,-32768,0.0,0.0,85,0.00,,,0.00,Wunderground v.1.12,2013-07-03 07:55:00,
2013-07-03 02:00:00,67.8,63.1,29.88,N/A,-32768,0.0,0.0,85,0.00,,,0.00,Wunderground v.1.12,2013-07-03 08:00:00,
2013-07-03 02:05:00,67.5,63.2,29.88,N/A,-32768,0.0,0.0,86,0.00,,,0.00,Wunderground v.1.12,2013-07-03 08:05:00,
2013-07-03 02:10:00,67.3,63.3,29.88,N/A,-32768,0.0,0.0,87,0.00,,,0.00,Wunderground v.1.12,2013-07-03 08:10:00,
2013-07-03 02:15:00,67.1,63.4,29.88,N/A,-32768,0.0,0.0,88,0.00,,,0.00,Wunderground v.1.12,2013-07-03 08:15:00,
2013-07-03 02:20:00,66.8,63.1,29.88,N/A,-32768,0.0,0.0,88,0.00,,,0.00,Wunderground v.1.12,2013-07-03 08:20:00,
2013-07-03 02:25:00,66.5,62.8,29.88,N/A,-32768,0.0,0.0,88,0.00,,,0.00,Wunderground v.1.12,2013-07-03 08:25:00,
2013-07-03 02:35:00,66.1,62.8,29.88,N/A,-32768,0.0,0.0,89,0.00,,,0.00,Wunderground v.1.12,2013-07-03 08:35:00,
2013-07-03 02:45:00,65.6,62.6,29.88,N/A,-32768,0.0,0.0,90,0.00,,,0.00,Wunderground v.1.12,2013-07-03 08:45:00,
2013-07-03 02:50:00,65.4,62.7,29.88,N/A,-32768,0.0,0.0,91,0.00,,,0.00,Wunderground v.1.12,2013-07-03 08:50:00,
2013-07-03 02:55:00,65.3,62.6,29.88,N/A,-32768,0.0,0.0,91,0.00,,,0.00,Wunderground v.1.12,2013-07-03 08:55:00,
2013-07-03 03:00:00,65.1,62.4,29.88,N/A,-32768,0.0,0.0,91,0.00,,,0.00,Wunderground v.1.12,2013-07-03 09:00:00,
2013-07-03 03:05:00,65.6,62.9,29.88,N/A,-737280,0.0,4.0,91,0.00,,,0.00,Wunderground v.1.12,2013-07-03 09:05:00,
2013-07-03 03:10:00,64.8,62.4,29.88,N/A,-32768,0.0,0.0,92,0.00,,,0.00,Wunderground v.1.12,2013-07-03 09:10:00,
2013-07-03 03:15:00,64.6,62.2,29.88,N/A,-32768,0.0,0.0,92,0.00,,,0.00,Wunderground v.1.12,2013-07-03 09:15:00,
2013-07-03 03:25:00,64.2,62.1,29.88,N/A,-32768,0.0,0.0,93,0.00,,,0.00,Wunderground v.1.12,2013-07-03 09:25:00,
2013-07-03 03:35:00,64.1,62.0,29.88,N/A,-32768,0.0,0.0,93,0.00,,,0.00,Wunderground v.1.12,2013-07-03 09:35:00,
2013-07-03 03:40:00,64.0,61.9,29.88,N/A,-32768,0.0,0.0,93,0.00,,,0.00,Wunderground v.1.12,2013-07-03 09:40:00,
2013-07-03 03:45:00,64.0,61.6,29.88,N/A,-32768,0.0,0.0,92,0.00,,,0.00,Wunderground v.1.12,2013-07-03 09:45:00,
2013-07-03 03:55:00,63.7,61.9,29.88,N/A,-32768,0.0,0.0,94,0.00,,,0.00,Wunderground v.1.12,2013-07-03 09:55:00,
2013-07-03 04:00:00,63.5,61.7,29.88,N/A,-32768,0.0,0.0,94,0.00,,,0.00,Wunderground v.1.12,2013-07-03 10:00:00,
2013-07-03 04:05:00,63.4,61.6,29.89,N/A,-32768,1.0,1.0,94,0.00,,,0.00,Wunderground v.1.12,2013-07-03 10:05:00,
2013-07-03 04:10:00,63.2,61.4,29.88,N/A,-32768,0.0,0.0,94,0.00,,,0.00,Wunderground v.1.12,2013-07-03 10:10:00,
2013-07-03 04:15:00,63.1,61.3,29.88,N/A,-32768,0.0,0.0,94,0.00,,,0.00,Wunderground v.1.12,2013-07-03 10:15:00,
2013-07-03 04:25:00,63.0,61.2,29.88,N/A,-32768,0.0,0.0,94,0.00,,,0.00,Wunderground v.1.12,2013-07-03 10:25:00,
2013-07-03 04:30:00,63.0,61.2,29.88,N/A,-32768,0.0,0.0,94,0.00,,,0.00,Wunderground v.1.12,2013-07-03 10:30:00,
2013-07-03 04:40:00,62.8,61.0,29.88,N/A,-32768,0.0,0.0,94,0.00,,,0.00,Wunderground v.1.12,2013-07-03 10:40:00,
2013-07-03 04:45:00,62.7,60.9,29.88,N/A,-32768,0.0,0.0,94,0.00,,,0.00,Wunderground v.1.12,2013-07-03 10:45:00,
2013-07-03 05:00:00,62.3,60.6,29.88,N/A,-32768,0.0,0.0,94,0.00,,,0.00,Wunderground v.1.12,2013-07-03 11:00:00,
2013-07-03 05:05:00,62.2,60.8,29.88,N/A,-32768,0.0,0.0,95,0.00,,,0.00,Wunderground v.1.12,2013-07-03 11:05:00,
2013-07-03 05:10:00,62.2,60.8,29.88,N/A,-32768,0.0,0.0,95,0.00,,,0.00,Wunderground v.1.12,2013-07-03 11:10:00,
2013-07-03 05:25:00,62.0,60.6,29.88,N/A,-32768,0.0,0.0,95,0.00,,,0.00,Wunderground v.1.12,2013-07-03 11:25:00,
2013-07-03 05:30:00,61.8,60.4,29.88,N/A,-32768,0.0,0.0,95,0.00,,,0.00,Wunderground v.1.12,2013-07-03 11:30:00,
2013-07-03 05:35:00,61.7,60.5,29.88,N/A,-32768,0.0,0.0,96,0.00,,,0.00,Wunderground v.1.12,2013-07-03 11:35:00,
2013-07-03 05:40:00,61.6,60.2,29.89,N/A,-32768,0.0,0.0,95,0.00,,,0.00,Wunderground v.1.12,2013-07-03 11:40:00,
2013-07-03 05:45:00,61.6,60.4,29.89,N/A,-32768,0.0,0.0,96,0.00,,,0.00,Wunderground v.1.12,2013-07-03 11:45:00,
2013-07-03 05:55:00,61.5,60.3,29.89,N/A,-32768,0.0,0.0,96,0.00,,,0.00,Wunderground v.1.12,2013-07-03 11:55:00,
2013-07-03 06:00:00,61.4,60.2,29.89,N/A,-32768,0.0,0.0,96,0.00,,,0.00,Wunderground v.1.12,2013-07-03 12:00:00,
2013-07-03 06:05:00,61.4,60.2,29.89,N/A,-32768,0.0,0.0,96,0.00,,,0.00,Wunderground v.1.12,2013-07-03 12:05:00,
2013-07-03 06:10:00,61.5,60.3,29.89,N/A,-32768,0.0,0.0,96,0.00,,,0.00,Wunderground v.1.12,2013-07-03 12:10:00,
2013-07-03 06:15:00,61.8,60.6,29.89,N/A,-32768,0.0,0.0,96,0.00,,,0.00,Wunderground v.1.12,2013-07-03 12:15:00,
2013-07-03 06:20:00,62.1,60.7,29.89,N/A,-32768,0.0,0.0,95,0.00,,,0.00,Wunderground v.1.12,2013-07-03 12:20:00,
2013-07-03 06:30:00,62.6,60.8,29.89,N/A,-32768,0.0,0.0,94,0.00,,,0.00,Wunderground v.1.12,2013-07-03 12:30:00,
2013-07-03 06:35:00,62.9,61.1,29.89,N/A,-32768,0.0,0.0,94,0.00,,,0.00,Wunderground v.1.12,2013-07-03 12:35:00,
2013-07-03 06:40:00,63.1,61.3,29.90,N/A,-32768,0.0,0.0,94,0.00,,,0.00,Wunderground v.1.12,2013-07-03 12:40:00,
2013-07-03 06:45:00,63.3,61.5,29.89,N/A,-32768,0.0,0.0,94,0.00,,,0.00,Wunderground v.1.12,2013-07-03 12:45:00,
2013-07-03 07:00:00,63.8,62.0,29.90,N/A,-32768,0.0,0.0,94,0.00,,,0.00,Wunderground v.1.12,2013-07-03 13:00:00,
2013-07-03 07:05:00,64.0,62.2,29.90,N/A,-32768,0.0,0.0,94,0.00,,,0.00,Wunderground v.1.12,2013-07-03 13:05:00,
2013-07-03 07:10:00,64.2,62.4,29.90,N/A,-32768,0.0,0.0,94,0.00,,,0.00,Wunderground v.1.12,2013-07-03 13:10:00,
2013-07-03 07:15:00,64.3,62.5,29.90,N/A,-32768,0.0,0.0,94,0.00,,,0.00,Wunderground v.1.12,2013-07-03 13:15:00,
2013-07-03 07:20:00,64.4,62.6,29.90,N/A,-32768,0.0,0.0,94,0.00,,,0.00,Wunderground v.1.12,2013-07-03 13:20:00,
2013-07-03 07:25:00,64.6,62.8,29.90,N/A,-32768,0.0,0.0,94,0.00,,,0.00,Wunderground v.1.12,2013-07-03 13:25:00,
2013-07-03 07:30:00,64.8,63.0,29.90,N/A,-32768,0.0,0.0,94,0.00,,,0.00,Wunderground v.1.12,2013-07-03 13:30:00,
2013-07-03 07:35:00,65.1,63.3,29.90,N/A,-32768,0.0,0.0,94,0.00,,,0.00,Wunderground v.1.12,2013-07-03 13:35:00,
2013-07-03 07:40:00,65.5,63.7,29.90,N/A,-32768,0.0,0.0,94,0.00,,,0.00,Wunderground v.1.12,2013-07-03 13:40:00,
2013-07-03 07:45:00,65.8,64.0,29.90,N/A,-32768,0.0,0.0,94,0.00,,,0.00,Wunderground v.1.12,2013-07-03 13:45:00,
2013-07-03 07:50:00,66.2,64.1,29.90,N/A,-32768,0.0,0.0,93,0.00,,,0.00,Wunderground v.1.12,2013-07-03 13:50:00,
2013-07-03 07:55:00,66.5,64.1,29.90,N/A,-32768,0.0,0.0,92,0.00,,,0.00,Wunderground v.1.12,2013-07-03 13:55:00,
2013-07-03 08:00:00,66.8,64.4,29.90,N/A,-32768,0.0,0.0,92,0.00,,,0.00,Wunderground v.1.12,2013-07-03 14:00:00,
2013-07-03 08:10:00,65.8,63.4,29.90,N/A,-737280,0.0,0.0,92,0.00,,,0.00,Wunderground v.1.12,2013-07-03 14:10:00,
2013-07-03 08:15:00,67.6,64.9,29.90,N/A,-32768,0.0,0.0,91,0.00,,,0.00,Wunderground v.1.12,2013-07-03 14:15:00,
2013-07-03 08:20:00,68.0,64.6,29.90,N/A,-32768,0.0,0.0,89,0.00,,,0.00,Wunderground v.1.12,2013-07-03 14:20:00,
2013-07-03 08:25:00,68.3,64.6,29.90,N/A,-32768,0.0,0.0,88,0.00,,,0.00,Wunderground v.1.12,2013-07-03 14:25:00,
2013-07-03 08:30:00,68.6,64.9,29.90,N/A,-32768,0.0,0.0,88,0.00,,,0.00,Wunderground v.1.12,2013-07-03 14:30:00,
2013-07-03 08:40:00,69.5,65.5,29.90,N/A,-32768,0.0,0.0,87,0.00,,,0.00,Wunderground v.1.12,2013-07-03 14:40:00,
2013-07-03 08:50:00,70.2,66.1,29.90,N/A,-32768,0.0,0.0,87,0.00,,,0.00,Wunderground v.1.12,2013-07-03 14:50:00,
2013-07-03 08:55:00,70.5,66.4,29.90,N/A,-32768,0.0,0.0,87,0.00,,,0.00,Wunderground v.1.12,2013-07-03 14:55:00,
2013-07-03 09:00:00,70.9,67.2,29.90,N/A,-32768,0.0,0.0,88,0.00,,,0.00,Wunderground v.1.12,2013-07-03 15:00:00,
2013-07-03 09:05:00,71.3,66.9,29.90,N/A,-32768,0.0,0.0,86,0.00,,,0.00,Wunderground v.1.12,2013-07-03 15:05:00,
2013-07-03 09:10:00,72.2,66.4,29.89,N/A,-32768,0.0,0.0,82,0.00,,,0.00,Wunderground v.1.12,2013-07-03 15:10:00,
2013-07-03 09:15:00,73.5,68.0,29.89,N/A,-32768,0.0,0.0,83,0.00,,,0.00,Wunderground v.1.12,2013-07-03 15:15:00,
2013-07-03 09:20:00,74.3,65.1,29.89,N/A,-32768,4.0,4.0,73,0.00,,,0.00,Wunderground v.1.12,2013-07-03 15:20:00,
2013-07-03 09:25:00,75.8,65.3,29.89,N/A,-32768,0.0,0.0,70,0.00,,,0.00,Wunderground v.1.12,2013-07-03 15:25:00,
2013-07-03 09:30:00,77.0,63.9,29.89,N/A,-32768,0.0,0.0,64,0.00,,,0.00,Wunderground v.1.12,2013-07-03 15:30:00,
2013-07-03 09:35:00,78.6,64.9,29.89,N/A,-32768,0.0,0.0,63,0.00,,,0.00,Wunderground v.1.12,2013-07-03 15:35:00,
2013-07-03 09:40:00,79.9,66.6,29.89,N/A,-32768,0.0,0.0,64,0.00,,,0.00,Wunderground v.1.12,2013-07-03 15:40:00,
2013-07-03 09:45:00,81.1,66.8,29.89,N/A,-32768,2.0,2.0,62,0.00,,,0.00,Wunderground v.1.12,2013-07-03 15:45:00,
2013-07-03 09:50:00,82.1,66.8,29.89,N/A,-32768,0.0,0.0,60,0.00,,,0.00,Wunderground v.1.12,2013-07-03 15:50:00,
2013-07-03 09:55:00,83.1,66.3,29.88,N/A,-32768,0.0,0.0,57,0.00,,,0.00,Wunderground v.1.12,2013-07-03 15:55:00,
2013-07-03 10:00:00,84.1,66.2,29.88,N/A,-32768,0.0,0.0,55,0.00,,,0.00,Wunderground v.1.12,2013-07-03 16:00:00,
2013-07-03 10:05:00,84.9,66.9,29.88,N/A,-32768,4.0,4.0,55,0.00,,,0.00,Wunderground v.1.12,2013-07-03 16:05:00,
2013-07-03 10:10:00,85.8,65.6,29.88,N/A,-32768,0.0,0.0,51,0.00,,,0.00,Wunderground v.1.12,2013-07-03 16:10:00,
2013-07-03 10:20:00,87.1,67.3,29.88,N/A,-32768,0.0,0.0,52,0.00,,,0.00,Wunderground v.1.12,2013-07-03 16:20:00,
2013-07-03 10:25:00,87.5,67.1,29.88,N/A,-32768,0.0,0.0,51,0.00,,,0.00,Wunderground v.1.12,2013-07-03 16:25:00,
2013-07-03 10:35:00,88.5,66.3,29.88,N/A,-32768,0.0,0.0,48,0.00,,,0.00,Wunderground v.1.12,2013-07-03 16:35:00,
2013-07-03 10:40:00,89.0,67.4,29.88,N/A,-32768,0.0,0.0,49,0.00,,,0.00,Wunderground v.1.12,2013-07-03 16:40:00,
2013-07-03 10:50:00,89.7,66.8,29.88,N/A,-32768,0.0,0.0,47,0.00,,,0.00,Wunderground v.1.12,2013-07-03 16:50:00,
2013-07-03 10:55:00,90.3,67.9,29.88,N/A,-32768,0.0,0.0,48,0.00,,,0.00,Wunderground v.1.12,2013-07-03 16:55:00,
2013-07-03 11:00:00,90.5,65.6,29.88,N/A,-32768,3.0,3.0,44,0.00,,,0.00,Wunderground v.1.12,2013-07-03 17:00:00,
2013-07-03 11:05:00,90.6,68.2,29.88,N/A,-32768,3.0,3.0,48,0.00,,,0.00,Wunderground v.1.12,2013-07-03 17:05:00,
2013-07-03 11:10:00,91.0,68.0,29.88,N/A,-32768,2.0,2.0,47,0.00,,,0.00,Wunderground v.1.12,2013-07-03 17:10:00,
2013-07-03 11:15:00,91.5,66.5,29.88,N/A,-32768,0.0,0.0,44,0.00,,,0.00,Wunderground v.1.12,2013-07-03 17:15:00,
2013-07-03 11:25:00,92.3,67.2,29.88,N/A,-32768,0.0,0.0,44,0.00,,,0.00,Wunderground v.1.12,2013-07-03 17:25:00,
2013-07-03 11:30:00,92.4,66.7,29.88,N/A,-32768,1.0,1.0,43,0.00,,,0.00,Wunderground v.1.12,2013-07-03 17:30:00,
2013-07-03 11:35:00,92.5,67.4,29.88,N/A,-32768,0.0,0.0,44,0.00,,,0.00,Wunderground v.1.12,2013-07-03 17:35:00,
2013-07-03 11:40:00,92.5,67.4,29.88,N/A,-32768,0.0,0.0,44,0.00,,,0.00,Wunderground v.1.12,2013-07-03 17:40:00,
2013-07-03 11:55:00,92.6,66.2,29.88,N/A,-32768,7.0,7.0,42,0.00,,,0.00,Wunderground v.1.12,2013-07-03 17:55:00,
2013-07-03 12:00:00,92.6,66.2,29.88,N/A,-32768,7.0,7.0,42,0.00,,,0.00,Wunderground v.1.12,2013-07-03 18:00:00,
2013-07-03 12:05:00,92.9,66.4,29.88,N/A,-32768,5.0,5.0,42,0.00,,,0.00,Wunderground v.1.12,2013-07-03 18:05:00,
2013-07-03 12:10:00,92.9,65.7,29.87,N/A,-32768,0.0,0.0,41,0.00,,,0.00,Wunderground v.1.12,2013-07-03 18:10:00,
2013-07-03 12:15:00,93.3,66.1,29.87,N/A,-32768,0.0,0.0,41,0.00,,,0.00,Wunderground v.1.12,2013-07-03 18:15:00,
2013-07-03 12:20:00,93.6,66.4,29.87,N/A,-32768,0.0,0.0,41,0.00,,,0.00,Wunderground v.1.12,2013-07-03 18:20:00,
2013-07-03 12:25:00,94.1,66.1,29.87,N/A,-32768,0.0,0.0,40,0.00,,,0.00,Wunderground v.1.12,2013-07-03 18:25:00,
2013-07-03 12:35:00,94.3,67.0,29.87,N/A,-32768,0.0,0.0,41,0.00,,,0.00,Wunderground v.1.12,2013-07-03 18:35:00,
2013-07-03 12:40:00,94.6,65.1,29.87,N/A,-32768,0.0,0.0,38,0.00,,,0.00,Wunderground v.1.12,2013-07-03 18:40:00,
2013-07-03 12:45:00,94.6,65.8,29.87,N/A,-32768,1.0,1.0,39,0.00,,,0.00,Wunderground v.1.12,2013-07-03 18:45:00,
2013-07-03 12:50:00,94.7,66.6,29.87,N/A,-32768,0.0,0.0,40,0.00,,,0.00,Wunderground v.1.12,2013-07-03 18:50:00,
2013-07-03 12:55:00,94.9,66.8,29.88,N/A,-32768,0.0,0.0,40,0.00,,,0.00,Wunderground v.1.12,2013-07-03 18:55:00,
2013-07-03 13:05:00,95.1,68.4,29.88,N/A,-32768,0.0,0.0,42,0.00,,,0.00,Wunderground v.1.12,2013-07-03 19:05:00,
2013-07-03 13:15:00,95.1,65.5,29.88,N/A,-737280,0.0,9.0,38,0.00,,,0.00,Wunderground v.1.12,2013-07-03 19:15:00,
2013-07-03 13:20:00,95.3,67.2,29.87,N/A,-32768,0.0,0.0,40,0.00,,,0.00,Wunderground v.1.12,2013-07-03 19:20:00,
2013-07-03 13:30:00,95.2,67.8,29.87,N/A,-32768,0.0,0.0,41,0.00,,,0.00,Wunderground v.1.12,2013-07-03 19:30:00,
2013-07-03 13:35:00,95.2,66.3,29.87,N/A,-32768,0.0,0.0,39,0.00,,,0.00,Wunderground v.1.12,2013-07-03 19:35:00,
2013-07-03 13:45:00,95.2,66.3,29.87,N/A,-32768,0.0,0.0,39,0.00,,,0.00,Wunderground v.1.12,2013-07-03 19:45:00,
2013-07-03 13:50:00,95.1,66.2,29.87,N/A,-32768,1.0,1.0,39,0.00,,,0.00,Wunderground v.1.12,2013-07-03 19:50:00,
2013-07-03 13:55:00,95.0,63.9,29.87,N/A,-32768,0.0,0.0,36,0.00,,,0.00,Wunderground v.1.12,2013-07-03 19:55:00,
2013-07-03 14:00:00,94.1,63.1,29.87,N/A,-32768,4.0,4.0,36,0.00,,,0.00,Wunderground v.1.12,2013-07-03 20:00:00,
2013-07-03 14:05:00,93.7,64.3,29.87,N/A,-32768,1.0,1.0,38,0.00,,,0.00,Wunderground v.1.12,2013-07-03 20:05:00,
2013-07-03 14:10:00,93.8,64.3,29.87,N/A,-32768,0.0,0.0,38,0.00,,,0.00,Wunderground v.1.12,2013-07-03 20:10:00,
2013-07-03 14:20:00,93.6,64.2,29.87,N/A,-32768,0.0,0.0,38,0.00,,,0.00,Wunderground v.1.12,2013-07-03 20:20:00,
2013-07-03 14:35:00,93.2,64.6,29.86,N/A,-32768,0.0,0.0,39,0.00,,,0.00,Wunderground v.1.12,2013-07-03 20:35:00,
2013-07-03 14:45:00,92.9,62.8,29.86,N/A,-32768,0.0,0.0,37,0.00,,,0.00,Wunderground v.1.12,2013-07-03 20:45:00,
2013-07-03 14:55:00,93.0,64.4,29.86,N/A,-32768,0.0,0.0,39,0.00,,,0.00,Wunderground v.1.12,2013-07-03 20:55:00,
2013-07-03 15:00:00,92.6,64.0,29.86,N/A,-32768,0.0,0.0,39,0.00,,,0.00,Wunderground v.1.12,2013-07-03 21:00:00,
2013-07-03 15:05:00,92.3,65.2,29.86,N/A,-32768,0.0,0.0,41,0.00,,,0.00,Wunderground v.1.12,2013-07-03 21:05:00,
2013-07-03 15:10:00,92.1,65.0,29.86,N/A,-32768,0.0,0.0,41,0.00,,,0.00,Wunderground v.1.12,2013-07-03 21:10:00,
2013-07-03 15:20:00,91.7,64.0,29.86,N/A,-32768,0.0,0.0,40,0.00,,,0.00,Wunderground v.1.12,2013-07-03 21:20:00,
2013-07-03 15:30:00,91.2,63.5,29.85,N/A,-32768,0.0,0.0,40,0.00,,,0.00,Wunderground v.1.12,2013-07-03 21:30:00,
2013-07-03 15:35:00,91.2,63.5,29.85,N/A,-32768,0.0,0.0,40,0.00,,,0.00,Wunderground v.1.12,2013-07-03 21:35:00,
2013-07-03 15:40:00,91.2,63.5,29.85,N/A,-32768,0.0,0.0,40,0.00,,,0.00,Wunderground v.1.12,2013-07-03 21:40:00,
2013-07-03 15:45:00,91.0,62.6,29.85,N/A,-32768,4.0,4.0,39,0.00,,,0.00,Wunderground v.1.12,2013-07-03 21:45:00,
2013-07-03 15:50:00,90.6,63.0,29.85,N/A,-32768,6.0,6.0,40,0.00,,,0.00,Wunderground v.1.12,2013-07-03 21:50:00,
2013-07-03 15:55:00,90.3,63.4,29.85,N/A,-32768,0.0,0.0,41,0.00,,,0.00,Wunderground v.1.12,2013-07-03 21:55:00,
2013-07-03 16:00:00,90.1,64.6,29.85,N/A,-32768,0.0,0.0,43,0.00,,,0.00,Wunderground v.1.12,2013-07-03 22:00:00,
2013-07-03 16:05:00,90.8,65.2,29.85,N/A,-737280,1.0,11.0,43,0.00,,,0.00,Wunderground v.1.12,2013-07-03 22:05:00,
2013-07-03 16:10:00,89.6,64.1,29.85,N/A,-32768,0.0,0.0,43,0.00,,,0.00,Wunderground v.1.12,2013-07-03 22:10:00,
2013-07-03 16:20:00,88.8,62.7,29.85,N/A,-32768,0.0,0.0,42,0.00,,,0.00,Wunderground v.1.12,2013-07-03 22:20:00,
2013-07-03 16:25:00,88.5,63.1,29.85,N/A,-32768,0.0,0.0,43,0.00,,,0.00,Wunderground v.1.12,2013-07-03 22:25:00,
2013-07-03 16:30:00,88.3,63.0,29.85,N/A,-32768,0.0,0.0,43,0.00,,,0.00,Wunderground v.1.12,2013-07-03 22:30:00,
2013-07-03 16:45:00,87.8,61.2,29.84,N/A,-32768,0.0,0.0,41,0.00,,,0.00,Wunderground v.1.12,2013-07-03 22:45:00,
2013-07-03 16:50:00,87.5,63.5,29.84,N/A,-32768,0.0,0.0,45,0.00,,,0.00,Wunderground v.1.12,2013-07-03 22:50:00,
2013-07-03 16:55:00,87.2,63.3,29.84,N/A,-32768,0.0,0.0,45,0.00,,,0.00,Wunderground v.1.12,2013-07-03 22:55:00,
2013-07-03 17:10:00,86.7,60.9,29.84,N/A,-32768,0.0,0.0,42,0.00,,,0.00,Wunderground v.1.12,2013-07-03 23:10:00,
2013-07-03 17:15:00,86.5,60.7,29.84,N/A,-32768,0.0,0.0,42,0.00,,,0.00,Wunderground v.1.12,2013-07-03 23:15:00,
2013-07-03 17:20:00,86.5,60.0,29.84,N/A,-32768,0.0,0.0,41,0.00,,,0.00,Wunderground v.1.12,2013-07-03 23:20:00,
2013-07-03 17:25:00,86.3,60.5,29.83,N/A,-32768,0.0,0.0,42,0.00,,,0.00,Wunderground v.1.12,2013-07-03 23:25:00,
2013-07-03 17:30:00,86.2,60.4,29.83,N/A,-32768,6.0,6.0,42,0.00,,,0.00,Wunderground v.1.12,2013-07-03 23:30:00,
2013-07-03 17:35:00,85.9,59.5,29.83,N/A,-32768,0.0,0.0,41,0.00,,,0.00,Wunderground v.1.12,2013-07-03 23:35:00,
2013-07-03 17:40:00,85.9,60.8,29.83,N/A,-32768,0.0,0.0,43,0.00,,,0.00,Wunderground v.1.12,2013-07-03 23:40:00,
2013-07-03 17:50:00,85.6,58.5,29.83,N/A,-32768,0.0,0.0,40,0.00,,,0.00,Wunderground v.1.12,2013-07-03 23:50:00,
2013-07-03 17:55:00,85.5,60.4,29.83,N/A,-32768,0.0,0.0,43,0.00,,,0.00,Wunderground v.1.12,2013-07-03 23:55:00,
2013-07-03 18:00:00,85.5,60.4,29.83,N/A,-32768,0.0,0.0,43,0.00,,,0.00,Wunderground v.1.12,2013-07-04 00:00:00,
2013-07-03 18:05:00,85.3,60.3,29.83,N/A,-32768,0.0,0.0,43,0.00,,,0.00,Wunderground v.1.12,2013-07-04 00:05:00,
2013-07-03 18:10:00,85.1,58.8,29.82,N/A,-32768,0.0,0.0,41,0.00,,,0.00,Wunderground v.1.12,2013-07-04 00:10:00,
2013-07-03 18:15:00,84.9,58.6,29.82,N/A,-32768,0.0,0.0,41,0.00,,,0.00,Wunderground v.1.12,2013-07-04 00:15:00,
2013-07-03 18:20:00,84.8,58.5,29.82,N/A,-32768,0.0,0.0,41,0.00,,,0.00,Wunderground v.1.12,2013-07-04 00:20:00,
2013-07-03 18:25:00,84.7,59.1,29.82,N/A,-32768,0.0,0.0,42,0.00,,,0.00,Wunderground v.1.12,2013-07-04 00:25:00,
2013-07-03 18:30:00,84.6,57.6,29.82,N/A,-32768,0.0,0.0,40,0.00,,,0.00,Wunderground v.1.12,2013-07-04 00:30:00,
2013-07-03 18:35:00,84.6,56.9,29.82,N/A,-32768,0.0,0.0,39,0.00,,,0.00,Wunderground v.1.12,2013-07-04 00:35:00,
2013-07-03 18:40:00,84.5,57.5,29.82,N/A,-32768,0.0,0.0,40,0.00,,,0.00,Wunderground v.1.12,2013-07-04 00:40:00,
2013-07-03 18:50:00,84.3,60.0,29.82,N/A,-32768,0.0,0.0,44,0.00,,,0.00,Wunderground v.1.12,2013-07-04 00:50:00,
2013-07-03 18:55:00,84.1,59.2,29.82,N/A,-32768,0.0,0.0,43,0.00,,,0.00,Wunderground v.1.12,2013-07-04 00:55:00,
2013-07-03 19:00:00,84.0,59.1,29.82,N/A,-32768,0.0,0.0,43,0.00,,,0.00,Wunderground v.1.12,2013-07-04 01:00:00,
2013-07-03 19:10:00,83.5,56.6,29.82,N/A,-32768,0.0,0.0,40,0.00,,,0.00,Wunderground v.1.12,2013-07-04 01:10:00,
2013-07-03 19:15:00,83.3,57.1,29.82,N/A,-32768,0.0,0.0,41,0.00,,,0.00,Wunderground v.1.12,2013-07-04 01:15:00,
2013-07-03 19:30:00,82.5,58.4,29.82,N/A,-32768,0.0,0.0,44,0.00,,,0.00,Wunderground v.1.12,2013-07-04 01:30:00,
2013-07-03 19:35:00,82.1,56.7,29.82,N/A,-32768,0.0,0.0,42,0.00,,,0.00,Wunderground v.1.12,2013-07-04 01:35:00,
2013-07-03 19:40:00,81.8,57.1,29.82,N/A,-32768,0.0,0.0,43,0.00,,,0.00,Wunderground v.1.12,2013-07-04 01:40:00,
2013-07-03 19:45:00,81.5,57.5,29.82,N/A,-32768,0.0,0.0,44,0.00,,,0.00,Wunderground v.1.12,2013-07-04 01:45:00,
2013-07-03 19:50:00,81.2,57.2,29.82,N/A,-32768,0.0,0.0,44,0.00,,,0.00,Wunderground v.1.12,2013-07-04 01:50:00,
2013-07-03 20:00:00,80.8,57.5,29.82,N/A,-32768,0.0,0.0,45,0.00,,,0.00,Wunderground v.1.12,2013-07-04 02:00:00,
2013-07-03 20:05:00,80.5,57.2,29.82,N/A,-32768,0.0,0.0,45,0.00,,,0.00,Wunderground v.1.12,2013-07-04 02:05:00,
2013-07-03 20:15:00,80.0,56.7,29.82,N/A,-32768,0.0,0.0,45,0.00,,,0.00,Wunderground v.1.12,2013-07-04 02:15:00,
2013-07-03 20:20:00,79.8,57.2,29.82,N/A,-32768,0.0,0.0,46,0.00,,,0.00,Wunderground v.1.12,2013-07-04 02:20:00,
2013-07-03 20:30:00,79.5,56.9,29.82,N/A,-32768,0.0,0.0,46,0.00,,,0.00,Wunderground v.1.12,2013-07-04 02:30:00,
2013-07-03 20:35:00,79.2,57.8,29.82,N/A,-32768,0.0,0.0,48,0.00,,,0.00,Wunderground v.1.12,2013-07-04 02:35:00,
2013-07-03 20:40:00,78.9,59.2,29.82,N/A,-32768,0.0,0.0,51,0.00,,,0.00,Wunderground v.1.12,2013-07-04 02:40:00,
2013-07-03 20:45:00,78.3,61.3,29.82,N/A,-32768,0.0,0.0,56,0.00,,,0.00,Wunderground v.1.12,2013-07-04 02:45:00,
2013-07-03 20:50:00,77.8,61.8,29.82,N/A,-32768,0.0,0.0,58,0.00,,,0.00,Wunderground v.1.12,2013-07-04 02:50:00,
2013-07-03 21:00:00,76.9,62.0,29.82,N/A,-32768,0.0,0.0,60,0.00,,,0.00,Wunderground v.1.12,2013-07-04 03:00:00,
2013-07-03 21:05:00,76.5,61.6,29.82,N/A,-32768,0.0,0.0,60,0.00,,,0.00,Wunderground v.1.12,2013-07-04 03:05:00,
2013-07-03 21:15:00,75.3,61.4,29.82,N/A,-32768,0.0,0.0,62,0.00,,,0.00,Wunderground v.1.12,2013-07-04 03:15:00,
2013-07-03 21:20:00,74.8,61.4,29.83,N/A,-32768,0.0,0.0,63,0.00,,,0.00,Wunderground v.1.12,2013-07-04 03:20:00,
2013-07-03 21:25:00,74.4,61.4,29.83,N/A,-32768,0.0,0.0,64,0.00,,,0.00,Wunderground v.1.12,2013-07-04 03:25:00,
2013-07-03 21:35:00,73.3,61.3,29.83,N/A,-32768,0.0,0.0,66,0.00,,,0.00,Wunderground v.1.12,2013-07-04 03:35:00,
2013-07-03 21:40:00,75.4,62.8,29.83,N/A,-737280,0.0,0.0,65,0.00,,,0.00,Wunderground v.1.12,2013-07-04 03:40:00,
2013-07-03 21:45:00,72.5,61.3,29.83,N/A,-32768,0.0,0.0,68,0.00,,,0.00,Wunderground v.1.12,2013-07-04 03:45:00,
2013-07-03 21:55:00,71.5,61.2,29.84,N/A,-32768,0.0,0.0,70,0.00,,,0.00,Wunderground v.1.12,2013-07-04 03:55:00,
2013-07-03 22:05:00,70.6,60.7,29.84,N/A,-32768,0.0,0.0,71,0.00,,,0.00,Wunderground v.1.12,2013-07-04 04:05:00,
2013-07-03 22:10:00,70.2,60.4,29.84,N/A,-32768,0.0,0.0,71,0.00,,,0.00,Wunderground v.1.12,2013-07-04 04:10:00,
2013-07-03 22:15:00,70.0,60.2,29.85,N/A,-32768,0.0,0.0,71,0.00,,,0.00,Wunderground v.1.12,2013-07-04 04:15:00,
2013-07-03 22:20:00,69.6,60.2,29.85,N/A,-32768,0.0,0.0,72,0.00,,,0.00,Wunderground v.1.12,2013-07-04 04:20:00,
2013-07-03 22:30:00,68.9,59.5,29.85,N/A,-32768,0.0,0.0,72,0.00,,,0.00,Wunderground v.1.12,2013-07-04 04:30:00,
2013-07-03 22:40:00,68.3,59.7,29.85,N/A,-32768,0.0,0.0,74,0.00,,,0.00,Wunderground v.1.12,2013-07-04 04:40:00,
2013-07-03 22:45:00,67.9,59.7,29.85,N/A,-32768,0.0,0.0,75,0.00,,,0.00,Wunderground v.1.12,2013-07-04 04:45:00,
2013-07-03 22:50:00,67.5,59.7,29.86,N/A,-32768,0.0,0.0,76,0.00,,,0.00,Wunderground v.1.12,2013-07-04 04:50:00,
2013-07-03 22:55:00,67.9,60.1,29.86,N/A,-737280,0.0,0.0,76,0.00,,,0.00,Wunderground v.1.12,2013-07-04 04:55:00,
2013-07-03 23:00:00,67.0,58.8,29.86,N/A,-32768,0.0,0.0,75,0.00,,,0.00,Wunderground v.1.12,2013-07-04 05:00:00,
2013-07-03 23:05:00,66.8,59.0,29.86,N/A,-32768,0.0,0.0,76,0.00,,,0.00,Wunderground v.1.12,2013-07-04 05:05:00,
2013-07-03 23:10:00,66.7,59.3,29.86,N/A,-32768,0.0,0.0,77,0.00,,,0.00,Wunderground v.1.12,2013-07-04 05:10:00,
2013-07-03 23:20:00,66.2,58.8,29.86,N/A,-32768,0.0,0.0,77,0.00,,,0.00,Wunderground v.1.12,2013-07-04 05:20:00,
2013-07-03 23:25:00,66.1,58.7,29.86,N/A,-32768,0.0,0.0,77,0.00,,,0.00,Wunderground v.1.12,2013-07-04 05:25:00,
2013-07-03 23:35:00,65.5,58.5,29.87,N/A,-32768,0.0,0.0,78,0.00,,,0.00,Wunderground v.1.12,2013-07-04 05:35:00,
2013-07-03 23:40:00,65.3,58.3,29.87,N/A,-32768,0.0,0.0,78,0.00,,,0.00,Wunderground v.1.12,2013-07-04 05:40:00,
2013-07-03 23:50:00,65.0,58.3,29.87,N/A,-32768,0.0,0.0,79,0.00,,,0.00,Wunderground v.1.12,2013-07-04 05:50:00,